EDDB

Berlin-Schönefeld International Airport

Berlin, Germany
TAF EDDB 151100Z 1512/1612 28010KT 9999 SCT045 BECMG 1517/1519 27005KT BECMG 1519/1521 VRB02KT BECMG 1607/1609 17007KT
Issued Valid From Valid To
Aug-15 @ 11:00 UTC
(2 hours ago)
Aug-15 @ 12:00 UTC
(41 minutes ago)
Aug-16 @ 12:00 UTC
(in 23 hours)
Aug-15 @ 12:00 to Aug-15 @ 17:00
TAF EDDB 151100Z 1512/1612 28010KT 9999 SCT045
Wind Visibility Clouds
280° at 10 knots 10,000+ meters
  • Scattered at 4,500' AGL
Becoming Aug-15 @ 17:00 to Aug-15 @ 19:00
BECMG 1517/1519 27005KT
Wind Visibility Clouds
270° at 5 knots 10,000+ meters
  • Scattered at 4,500' AGL
Becoming Aug-15 @ 19:00 to Aug-16 @ 07:00
BECMG 1519/1521 VRB02KT
Wind Visibility Clouds
Variable at 2 knots 10,000+ meters
  • Scattered at 4,500' AGL
Becoming Aug-16 @ 07:00 to Aug-16 @ 12:00
BECMG 1607/1609 17007KT
Wind Visibility Clouds
170° at 7 knots 10,000+ meters
  • Scattered at 4,500' AGL
TAF EDDB 151100Z 1512/1612 28010KT 9999 SCT045 BECMG 1517/1519 27005KT BECMG 1519/1521 VRB02KT BECMG 1607/1609 17007KT
Issued Aug-15 @ 11:00 UTC
(2 hours ago)
Valid From Aug-15 @ 12:00 UTC
(41 minutes ago)
Valid To Aug-16 @ 12:00 UTC
(in 23 hours)
Aug-15 @ 12:00 - Aug-15 @ 17:00
Wind Visibility
280° at 10 knots 10,000+ meters
Clouds
  • Scattered at 4,500' AGL
Becoming Aug-15 @ 17:00 - Aug-15 @ 19:00
Wind Visibility
270° at 5 knots 10,000+ meters
Clouds
  • Scattered at 4,500' AGL
Becoming Aug-15 @ 19:00 - Aug-16 @ 07:00
Wind Visibility
Variable at 2 knots 10,000+ meters
Clouds
  • Scattered at 4,500' AGL
Becoming Aug-16 @ 07:00 - Aug-16 @ 12:00
Wind Visibility
170° at 7 knots 10,000+ meters
Clouds
  • Scattered at 4,500' AGL